createdAt,value
2022-12-29T00:01:16.617Z,3.8
2022-12-29T00:04:16.748Z,4.4875
2022-12-29T00:07:16.659Z,4.0375
2022-12-29T00:11:18.865Z,3.8249999999999997
2022-12-29T00:51:16.718Z,2.875
2022-12-29T00:54:18.395Z,2.4625000000000004
2022-12-29T00:57:17.081Z,3.625
2022-12-29T01:01:16.814Z,3.2625
2022-12-29T01:04:17.236Z,3.175
2022-12-29T01:07:16.910Z,3.2625
2022-12-29T01:11:16.109Z,2.9625
2022-12-29T01:14:16.986Z,2.8000000000000003
2022-12-29T01:17:16.321Z,2.9875
2022-12-29T01:21:15.841Z,2.9
2022-12-29T01:24:18.203Z,4.125
2022-12-29T01:27:16.165Z,2.5625
2022-12-29T01:31:16.652Z,2.9375
2022-12-29T01:34:17.296Z,2.9625
2022-12-29T01:37:16.851Z,3.5
2022-12-29T01:41:17.430Z,3.075
2022-12-29T01:44:51.684Z,3.775
2022-12-29T01:47:23.086Z,2.85
2022-12-29T01:51:17.054Z,3.6750000000000003
2022-12-29T01:54:23.152Z,4.0125
2022-12-29T01:57:20.280Z,3.375
2022-12-29T02:01:19.825Z,3.75
2022-12-29T02:04:16.511Z,3.9000000000000004
2022-12-29T02:07:19.702Z,3.4625
2022-12-29T02:11:16.647Z,3.7125
2022-12-29T02:14:16.575Z,2.9375
2022-12-29T02:17:28.007Z,3.4875
2022-12-29T02:21:41.876Z,3.5875
2022-12-29T02:24:45.553Z,3.6624999999999996
2022-12-29T02:27:52.326Z,3.2
2022-12-29T02:31:24.682Z,4.2
2022-12-29T02:34:26.802Z,2.7874999999999996
2022-12-29T02:37:24.141Z,3.6875
2022-12-29T02:41:23.282Z,3.6500000000000004
2022-12-29T02:44:25.231Z,3.1125
2022-12-29T02:47:24.252Z,3.6375
2022-12-29T02:51:21.189Z,3.2125
2022-12-29T02:54:49.898Z,3.2375000000000003
2022-12-29T02:57:30.867Z,3.4625
2022-12-29T03:01:28.364Z,3.4875
2022-12-29T03:04:30.307Z,2.7375
2022-12-29T03:07:24.056Z,2.775
2022-12-29T03:12:27.773Z,3.6875
2022-12-29T03:21:25.086Z,2.9375
2022-12-29T03:24:17.853Z,3.6375
2022-12-29T03:27:19.868Z,2.85
2022-12-29T03:31:18.164Z,3.1
2022-12-29T03:34:19.955Z,2.6875
2022-12-29T03:37:20.601Z,3.325
2022-12-29T03:41:20.726Z,3.5749999999999997
2022-12-29T03:44:16.569Z,3.0250000000000004
2022-12-29T03:47:16.623Z,4.3875
2022-12-29T03:51:15.765Z,5.012499999999999
2022-12-29T03:54:16.275Z,3.4125
2022-12-29T03:57:16.215Z,3.1625
2022-12-29T04:01:16.446Z,3.4625000000000004
2022-12-29T04:04:16.796Z,3.375
2022-12-29T04:07:16.706Z,4.2625
2022-12-29T04:11:15.887Z,4.0875
2022-12-29T04:14:16.366Z,4
2022-12-29T04:17:16.236Z,3.375
2022-12-29T04:21:16.657Z,3.1125
2022-12-29T04:24:17.681Z,3.0625
2022-12-29T04:27:17.160Z,3.5125
2022-12-29T04:31:16.132Z,4.4625
2022-12-29T04:34:16.714Z,4.5625
2022-12-29T04:37:16.456Z,3.6499999999999995
2022-12-29T04:41:16.661Z,4.925000000000001
2022-12-29T04:44:17.010Z,3.9749999999999996
2022-12-29T04:47:16.871Z,3.5374999999999996
2022-12-29T04:51:15.754Z,3.7249999999999996
2022-12-29T04:54:16.369Z,2.8375
2022-12-29T04:57:16.335Z,2.575
2022-12-29T05:01:16.749Z,2.675
2022-12-29T05:04:17.191Z,2.3
2022-12-29T05:11:16.798Z,3.625
2022-12-29T05:14:16.470Z,2.7875000000000005
2022-12-29T05:17:16.659Z,2.3125
2022-12-29T05:21:16.507Z,3.1875
2022-12-29T05:24:17.003Z,2.875
2022-12-29T05:27:17.077Z,3.5250000000000004
2022-12-29T05:31:16.440Z,3.125
2022-12-29T05:34:16.886Z,2.4
2022-12-29T05:37:16.892Z,3.5625
2022-12-29T05:41:16.250Z,3.5875000000000004
2022-12-29T05:51:16.923Z,3.8000000000000007
2022-12-29T05:54:17.508Z,3.5375
2022-12-29T05:57:17.273Z,3.0124999999999997
2022-12-29T06:01:16.456Z,2.925
2022-12-29T06:04:16.953Z,3.3
2022-12-29T06:07:17.019Z,3.0250000000000004
2022-12-29T06:11:16.728Z,3.4375
2022-12-29T06:14:17.027Z,2.425
2022-12-29T06:17:17.285Z,2.3499999999999996
2022-12-29T06:21:16.415Z,3.3625
2022-12-29T06:24:16.722Z,3.3
2022-12-29T06:27:17.061Z,3.3875
2022-12-29T06:31:16.345Z,2.925
2022-12-29T06:34:16.623Z,2.55
2022-12-29T06:37:16.648Z,3.475
2022-12-29T06:41:15.851Z,4.0125
2022-12-29T06:44:16.236Z,3.6625
2022-12-29T06:47:16.466Z,3.25
2022-12-29T06:51:16.340Z,4.6875
2022-12-29T06:54:16.839Z,3.9875
2022-12-29T06:57:16.757Z,3.5124999999999997
2022-12-29T07:01:16.933Z,4.762499999999999
2022-12-29T07:04:17.647Z,2.7375
2022-12-29T07:07:17.297Z,2.9
2022-12-29T07:11:16.657Z,2.8374999999999995
2022-12-29T07:14:16.973Z,2.3125
2022-12-29T07:17:16.928Z,4
2022-12-29T07:21:16.299Z,2.9499999999999997
2022-12-29T07:24:16.672Z,2.525
2022-12-29T07:27:16.602Z,2.775
2022-12-29T07:31:19.309Z,3.6375
2022-12-29T07:34:16.898Z,3.7125
2022-12-29T07:37:17.338Z,3.1125
2022-12-29T07:41:16.019Z,4.3375
2022-12-29T07:44:16.206Z,5.325
2022-12-29T07:47:16.311Z,4.6375
2022-12-29T07:51:16.201Z,5.0625
2022-12-29T07:54:19.554Z,4.9
2022-12-29T07:57:16.675Z,4.8500000000000005
2022-12-29T08:01:16.665Z,4.725
2022-12-29T08:04:17.161Z,5.3125
2022-12-29T08:07:17.067Z,6.5375
2022-12-29T08:11:16.569Z,7
2022-12-29T08:14:17.033Z,5.8375
2022-12-29T08:17:16.967Z,5.6875
2022-12-29T08:21:15.942Z,5.1125
2022-12-29T08:24:16.624Z,6.6625
2022-12-29T08:27:20.616Z,5.4125
2022-12-29T08:31:16.290Z,4.3
2022-12-29T08:34:16.718Z,3.8
2022-12-29T08:37:16.756Z,4.4125000000000005
2022-12-29T08:41:16.024Z,4.1625
2022-12-29T08:44:16.525Z,3.875
2022-12-29T08:47:16.226Z,3.6375
2022-12-29T08:51:21.339Z,3.4250000000000003
2022-12-29T08:54:16.961Z,2.825
2022-12-29T08:57:16.996Z,3.35
2022-12-29T09:01:16.417Z,3.6
2022-12-29T09:04:17.581Z,3.1
2022-12-29T09:07:16.370Z,3.55
2022-12-29T09:11:18.921Z,2.9
2022-12-29T09:14:16.913Z,3.3000000000000003
2022-12-29T09:17:49.280Z,3.2249999999999996
2022-12-29T09:21:17.547Z,2.9375
2022-12-29T09:24:16.582Z,3.0125
2022-12-29T09:27:16.732Z,4
2022-12-29T09:31:16.835Z,2.275
2022-12-29T09:34:17.301Z,2.1999999999999997
2022-12-29T09:37:17.495Z,2.4375
2022-12-29T09:41:20.864Z,2.4875000000000003
2022-12-29T09:44:23.335Z,2.7625
2022-12-29T09:47:19.371Z,4.012499999999999
2022-12-29T09:51:22.286Z,4.5625
2022-12-29T09:54:31.284Z,3.8000000000000003
2022-12-29T09:57:22.109Z,3.25
2022-12-29T10:01:26.667Z,4.0125
2022-12-29T10:04:16.423Z,2.625
2022-12-29T10:07:29.973Z,2.95
2022-12-29T10:11:27.056Z,2.7
2022-12-29T10:14:33.089Z,4.9624999999999995
2022-12-29T10:17:27.678Z,5.5375
2022-12-29T10:21:33.656Z,2.2375
2022-12-29T10:24:19.225Z,1.475
2022-12-29T10:27:18.897Z,1.65
2022-12-29T10:31:21.766Z,1.2375
2022-12-29T10:34:22.423Z,1.0374999999999999
2022-12-29T10:37:33.762Z,1.6625
2022-12-29T10:41:21.848Z,1.2125
2022-12-29T10:44:19.702Z,1.3
2022-12-29T10:47:24.443Z,1.4375
2022-12-29T10:51:21.805Z,1.625
2022-12-29T10:54:23.763Z,1.85
2022-12-29T10:57:26.701Z,1.775
2022-12-29T11:01:18.390Z,2.25
2022-12-29T11:04:31.514Z,1.2875
2022-12-29T11:07:25.041Z,1.1375
2022-12-29T11:11:23.851Z,1.5625
2022-12-29T11:14:21.600Z,1.5375
2022-12-29T11:17:17.676Z,2.175
2022-12-29T11:21:30.791Z,2.1125
2022-12-29T11:24:22.767Z,2.1375
2022-12-29T11:27:18.764Z,2.55
2022-12-29T11:31:18.217Z,4.55
2022-12-29T11:34:20.239Z,3.1499999999999995
2022-12-29T11:37:19.849Z,4.574999999999999
2022-12-29T11:41:23.150Z,3.7625
2022-12-29T11:44:17.029Z,3.8499999999999996
2022-12-29T11:47:29.146Z,4.075
2022-12-29T11:51:25.212Z,2.9375
2022-12-29T11:54:21.842Z,2.3875
2022-12-29T11:57:19.368Z,1.95
2022-12-29T12:01:21.188Z,2.4625000000000004
2022-12-29T12:04:22.002Z,3.1624999999999996
2022-12-29T12:07:23.055Z,2.5625
2022-12-29T12:11:21.064Z,2.15
2022-12-29T12:14:22.176Z,2.25
2022-12-29T12:17:21.722Z,2.675
2022-12-29T12:21:25.580Z,3.15
2022-12-29T12:24:30.949Z,2.5625
2022-12-29T12:27:22.190Z,2.3875
2022-12-29T12:31:26.518Z,2.8
2022-12-29T12:34:23.973Z,1.925
2022-12-29T12:37:37.447Z,1.85
2022-12-29T12:41:26.913Z,1.875
2022-12-29T12:44:28.769Z,1.875
2022-12-29T12:47:31.111Z,1.775
2022-12-29T12:51:24.041Z,1.5375
2022-12-29T12:54:35.951Z,1.775
2022-12-29T12:57:26.080Z,1.9875
2022-12-29T13:01:30.277Z,2.4000000000000004
2022-12-29T13:04:32.996Z,1.8125
2022-12-29T13:07:29.089Z,1.8375
2022-12-29T13:11:27.406Z,1.8
2022-12-29T13:14:30.300Z,1.7875
2022-12-29T13:17:28.563Z,1.8
2022-12-29T13:21:30.344Z,2.125
2022-12-29T13:24:23.915Z,1.6
2022-12-29T13:27:23.668Z,1.775
2022-12-29T13:31:24.460Z,3.4625
2022-12-29T13:34:27.755Z,2.075
2022-12-29T13:37:19.174Z,1.975
2022-12-29T13:41:23.436Z,3.1
2022-12-29T13:44:22.548Z,2.625
2022-12-29T13:47:25.387Z,2.1125
2022-12-29T13:51:21.391Z,2.65
2022-12-29T13:54:29.843Z,1.875
2022-12-29T13:57:39.783Z,2.1999999999999997
2022-12-29T14:01:23.245Z,2.025
2022-12-29T14:04:23.770Z,2.2125
2022-12-29T14:07:18.025Z,2.6625
2022-12-29T14:11:18.199Z,1.8375
2022-12-29T14:14:22.795Z,1.4375
2022-12-29T14:17:20.035Z,1.9625
2022-12-29T14:21:21.834Z,2.2
2022-12-29T14:24:49.155Z,2.35
2022-12-29T14:27:53.697Z,1.8875
2022-12-29T14:31:35.686Z,2.5875
2022-12-29T14:34:28.678Z,2.3000000000000003
2022-12-29T14:37:25.698Z,2.875
2022-12-29T14:41:24.662Z,3.5375
2022-12-29T14:44:20.606Z,4.550000000000001
2022-12-29T14:47:21.155Z,3.7750000000000004
2022-12-29T14:51:21.263Z,6.3125
2022-12-29T14:54:51.759Z,7.1125
2022-12-29T14:57:25.038Z,7.775
2022-12-29T15:01:23.506Z,5.0125
2022-12-29T15:04:20.787Z,4.6
2022-12-29T15:07:19.792Z,4.7625
2022-12-29T15:11:20.276Z,4.975
2022-12-29T15:14:35.145Z,5.1125
2022-12-29T15:17:25.528Z,5.7125
2022-12-29T15:21:17.327Z,5.6625
2022-12-29T15:24:16.526Z,6.450000000000001
2022-12-29T15:27:20.845Z,6.075
2022-12-29T15:31:21.444Z,5.612500000000001
2022-12-29T15:34:21.530Z,3.4
2022-12-29T15:37:20.722Z,3.3499999999999996
2022-12-29T15:41:26.108Z,6.175
2022-12-29T15:44:22.240Z,4.512499999999999
2022-12-29T15:47:19.208Z,5.025
2022-12-29T15:51:20.477Z,7.2375
2022-12-29T15:54:19.815Z,4.675
2022-12-29T15:57:23.074Z,5.675000000000001
2022-12-29T16:01:23.815Z,4.925
2022-12-29T16:04:17.421Z,18.7625
2022-12-29T16:07:27.926Z,10.0375
2022-12-29T16:11:22.883Z,7.550000000000001
2022-12-29T16:14:19.755Z,5.9
2022-12-29T16:17:21.660Z,6.475
2022-12-29T16:21:21.569Z,5.8375
2022-12-29T16:24:19.781Z,5.4375
2022-12-29T16:27:22.204Z,4.5125
2022-12-29T16:31:21.251Z,5.275
2022-12-29T16:34:24.980Z,4.8625
2022-12-29T16:37:29.766Z,8.2875
2022-12-29T16:41:30.284Z,13.7
2022-12-29T16:44:18.845Z,11.537500000000001
2022-12-29T16:47:20.681Z,8.712499999999999
2022-12-29T16:51:19.306Z,10.325
2022-12-29T16:54:22.387Z,12.712499999999999
2022-12-29T16:57:25.151Z,8.8375
2022-12-29T17:01:20.718Z,9
2022-12-29T17:04:17.206Z,10.35
2022-12-29T17:07:19.789Z,14.175
2022-12-29T17:12:25.516Z,6.8125
2022-12-29T17:14:24.548Z,4.862500000000001
2022-12-29T17:17:20.501Z,4.6
2022-12-29T17:21:16.781Z,6.3999999999999995
2022-12-29T17:24:18.759Z,3.6375
2022-12-29T17:27:25.377Z,5.625
2022-12-29T17:31:16.893Z,5.487500000000001
2022-12-29T17:34:17.578Z,3.45
2022-12-29T17:37:28.958Z,3.5625
2022-12-29T17:41:16.793Z,3.825
2022-12-29T17:44:18.192Z,4.0875
2022-12-29T17:47:16.825Z,6.324999999999999
2022-12-29T17:51:17.382Z,13.3875
2022-12-29T17:54:20.855Z,14.7125
2022-12-29T17:57:18.827Z,11.9375
2022-12-29T18:01:17.970Z,17.6625
2022-12-29T18:04:19.337Z,11.3125
2022-12-29T18:07:17.101Z,14.075
2022-12-29T18:11:22.084Z,16.387500000000003
2022-12-29T18:14:17.001Z,16.425
2022-12-29T18:17:16.594Z,18.674999999999997
2022-12-29T18:21:19.101Z,11.4125
2022-12-29T18:24:16.963Z,10.1125
2022-12-29T18:27:17.871Z,9.924999999999999
2022-12-29T18:31:20.141Z,6.725
2022-12-29T18:34:19.876Z,8.9
2022-12-29T18:37:16.842Z,4.4375
2022-12-29T18:41:18.132Z,5.175000000000001
2022-12-29T18:44:16.287Z,4.175
2022-12-29T18:47:16.346Z,4.4875
2022-12-29T18:51:18.490Z,4.762499999999999
2022-12-29T18:54:26.292Z,9.662500000000001
2022-12-29T18:57:16.415Z,5.3875
2022-12-29T19:01:20.244Z,6.2625
2022-12-29T19:04:16.741Z,6.362500000000001
2022-12-29T19:07:16.602Z,3.475
2022-12-29T19:11:16.114Z,4.425
2022-12-29T19:14:17.103Z,4.225
2022-12-29T19:17:16.203Z,4.4625
2022-12-29T19:21:16.765Z,4.2375
2022-12-29T19:24:16.908Z,5.9125
2022-12-29T19:27:16.954Z,9.025
2022-12-29T19:31:16.417Z,10.899999999999999
2022-12-29T19:34:17.137Z,10.675
2022-12-29T19:37:16.894Z,20.9375
2022-12-29T19:41:16.669Z,20.575000000000003
2022-12-29T19:44:17.523Z,13.7375
2022-12-29T19:47:20.707Z,13.275
2022-12-29T19:51:17.910Z,18.25
2022-12-29T19:54:17.063Z,12.274999999999999
2022-12-29T19:57:17.551Z,12.774999999999999
2022-12-29T20:01:17.926Z,13.8375
2022-12-29T20:04:16.495Z,11.05
2022-12-29T20:07:17.667Z,9.4125
2022-12-29T20:11:18.018Z,10.5125
2022-12-29T20:14:17.372Z,9.3
2022-12-29T20:17:27.248Z,11.675
2022-12-29T20:21:18.663Z,13.274999999999999
2022-12-29T20:24:16.792Z,9.9375
2022-12-29T20:27:16.865Z,17.425
2022-12-29T20:31:19.470Z,12.625
2022-12-29T20:34:17.816Z,11.075
2022-12-29T20:37:16.775Z,8.7625
2022-12-29T20:41:17.755Z,9.9
2022-12-29T20:44:16.775Z,8.9875
2022-12-29T20:47:16.896Z,7.325
2022-12-29T20:51:18.932Z,6.2749999999999995
2022-12-29T20:54:17.044Z,5.8375
2022-12-29T20:57:16.852Z,5.0125
2022-12-29T21:01:19.811Z,5.85
2022-12-29T21:04:16.956Z,5.7875
2022-12-29T21:07:20.157Z,18.549999999999997
2022-12-29T21:11:16.089Z,10.037500000000001
2022-12-29T21:14:16.311Z,6.175000000000001
2022-12-29T21:17:16.177Z,7.0875
2022-12-29T21:21:19.539Z,7.15
2022-12-29T21:24:16.736Z,6.3
2022-12-29T21:27:16.673Z,4.075
2022-12-29T21:31:24.600Z,6.262499999999999
2022-12-29T21:34:17.563Z,7.725
2022-12-29T21:37:23.253Z,8.1125
2022-12-29T21:41:16.696Z,6.550000000000001
2022-12-29T21:52:21.467Z,7.15
2022-12-29T21:55:21.366Z,6.4875
2022-12-29T22:21:16.642Z,7.6
2022-12-29T22:24:16.996Z,6.4
2022-12-29T22:27:16.731Z,5.9625
2022-12-29T22:31:23.892Z,5.6875
2022-12-29T22:34:17.234Z,4.4375
2022-12-29T22:37:22.611Z,5.6625
2022-12-29T22:41:16.619Z,6.7124999999999995
2022-12-29T22:44:17.258Z,4.3125
2022-12-29T22:47:16.686Z,5.675
2022-12-29T22:51:16.703Z,4.1
2022-12-29T22:54:18.784Z,5.2375
2022-12-29T22:57:16.928Z,5.824999999999999
2022-12-29T23:01:17.830Z,5.975
2022-12-29T23:04:55.544Z,4.75
2022-12-29T23:07:16.784Z,4.4375
2022-12-29T23:11:16.986Z,5.025
2022-12-29T23:14:17.625Z,4.0625
2022-12-29T23:17:16.789Z,4.925
2022-12-29T23:21:17.875Z,5.175000000000001
2022-12-29T23:24:16.660Z,5.1
2022-12-29T23:27:16.701Z,5.6375
2022-12-29T23:31:16.801Z,6.3125
2022-12-29T23:34:17.059Z,6.0875
2022-12-29T23:37:16.608Z,6.637499999999999
2022-12-29T23:41:22.235Z,6.9875
2022-12-29T23:44:22.828Z,7.125
2022-12-29T23:47:22.127Z,4.9125
2022-12-29T23:51:16.566Z,5.824999999999999
2022-12-29T23:54:16.541Z,4.5125
2022-12-29T23:57:16.817Z,4.199999999999999
